Mitchell, SD

02:16 PM CST am 04. März 2015 (GMT -0600)
APRSWXNET Mitchell SD US | Change Station
CLOSE
Current Station
Persönliche Wetterstationen
Location: Mitchell, SD
Höhe: 1309 ft
Wetterstationen in der Umgebung

Höhe 1309 ft 43.73 °N, 98.04 °W | Updated 31 minutes ago

Heiter
Heiter
12 °F
gefühlte -1 °F
N
10
Wind Wechselnd Wind aus Südost
Gusts 19.0 mph

Heute
Max. -- | schwach -- °F
--% Regenrisiko
Gestern
Max. -- | schwach -- °F
Precip. -- inch
7:04 AM 6:24 PM
Zweites Viertel, 99% visible
Druck 30.45 inch
Sichtweite 10.0 Meilen
Wolken Teils Wolkig 3700 ft
Windchill -1 °F
Taupunkt -5 °F
Feuchtigkeit 45%
Regen 0.00 inch
Schneehöhe Nicht verfügbar..
UV 4 von 12
Pollen .40 von 12
Luftqualität Nicht verfügbar..
Flu Activity Nicht verfügbar..
METAR KMHE 041953Z AUTO 33014G27KT 10SM SCT037 M12/M19 A3035 RMK AO2 PK WND 34027/1946 SLP311 T11171194

More Conditions Fewer Conditions

Druck 30.45 inch
Sichtweite 10.0 Meilen
Wolken Teils Wolkig 3700 ft
Windchill -1 °F
Taupunkt -5 °F
Feuchtigkeit 45%
Regen 0.00 inch
Schneehöhe Nicht verfügbar..
UV 4 von 12
Pollen .40 von 12
Luftqualität Nicht verfügbar..
Flu Activity Nicht verfügbar..
METAR KMHE 041953Z AUTO 33014G27KT 10SM SCT037 M12/M19 A3035 RMK AO2 PK WND 34027/1946 SLP311 T11171194

More Conditions Fewer Conditions

10-Day Weather Forecast

Almanac

Astronomie

Mar. 04, 2015 Aufgang Untergang
Genaue Zeit
Bürgerliche Dämmerung
Nautische Dämmerung
Astronomische Dämmerung
Mond
Länge des sichtbaren Lichts
Tageslänge
Tomorrow will be .
, % of the Moon is Illuminated

Heutige Rekorde

State Highs State Lows

Community

WunderPhotos

Upload Photos

1,802,567 Fotos hochgeladen!

WunderBlogs® & News

Nearby

Luftqualität

  Luftqualität LQ Index Schadstoff
Not available.

Schneehöhe

Station Depth Höhe

Erdbebenaktivität

Stadt Distance Mag. Time & Date
Minimum magnitude displayed is 2.5.

küstennahe Wassertemperaturen

Ort Temperatur

Wetterstationen in der Umgebung